sensor_id;sensor_type;location;lat;lon;timestamp;pressure;altitude;pressure_sealevel;temperature;humidity
73566;BME280;61846;52.970;-3.168;2023-04-26T00:02:01;100917.78;;;8.63;37.23
73566;BME280;61846;52.970;-3.168;2023-04-26T00:04:27;100916.35;;;8.95;36.75
73566;BME280;61846;52.970;-3.168;2023-04-26T00:06:52;100915.29;;;8.58;36.76
73566;BME280;61846;52.970;-3.168;2023-04-26T00:09:17;100916.35;;;8.63;36.70
73566;BME280;61846;52.970;-3.168;2023-04-26T00:11:42;100915.25;;;8.21;37.60
73566;BME280;61846;52.970;-3.168;2023-04-26T00:14:07;100913.93;;;8.41;37.56
73566;BME280;61846;52.970;-3.168;2023-04-26T00:16:33;100908.96;;;8.81;36.83
73566;BME280;61846;52.970;-3.168;2023-04-26T00:18:58;100906.18;;;6.86;38.89
73566;BME280;61846;52.970;-3.168;2023-04-26T00:21:23;100901.02;;;8.48;37.18
73566;BME280;61846;52.970;-3.168;2023-04-26T00:23:48;100901.84;;;8.07;37.68
73566;BME280;61846;52.970;-3.168;2023-04-26T00:26:13;100897.81;;;8.57;36.90
73566;BME280;61846;52.970;-3.168;2023-04-26T00:28:39;100899.28;;;7.96;37.83
73566;BME280;61846;52.970;-3.168;2023-04-26T00:31:05;100898.61;;;7.59;38.44
73566;BME280;61846;52.970;-3.168;2023-04-26T00:33:30;100900.36;;;7.83;38.53
73566;BME280;61846;52.970;-3.168;2023-04-26T00:35:56;100898.22;;;8.96;36.45
73566;BME280;61846;52.970;-3.168;2023-04-26T00:38:21;100901.81;;;8.37;37.45
73566;BME280;61846;52.970;-3.168;2023-04-26T00:40:46;100905.63;;;8.46;36.96
73566;BME280;61846;52.970;-3.168;2023-04-26T00:43:12;100908.40;;;7.79;37.40
73566;BME280;61846;52.970;-3.168;2023-04-26T00:45:37;100906.95;;;8.81;37.08
73566;BME280;61846;52.970;-3.168;2023-04-26T00:48:03;100903.58;;;9.48;36.16
73566;BME280;61846;52.970;-3.168;2023-04-26T00:50:28;100904.61;;;8.14;37.46
73566;BME280;61846;52.970;-3.168;2023-04-26T00:52:54;100902.04;;;8.48;36.85
73566;BME280;61846;52.970;-3.168;2023-04-26T00:55:20;100902.95;;;8.71;37.30
73566;BME280;61846;52.970;-3.168;2023-04-26T00:57:44;100895.90;;;8.39;37.28
73566;BME280;61846;52.970;-3.168;2023-04-26T01:00:10;100894.01;;;8.97;36.91
73566;BME280;61846;52.970;-3.168;2023-04-26T01:02:34;100895.65;;;8.59;36.75
73566;BME280;61846;52.970;-3.168;2023-04-26T01:04:59;100892.42;;;8.17;37.13
73566;BME280;61846;52.970;-3.168;2023-04-26T01:07:25;100898.96;;;7.65;37.79
73566;BME280;61846;52.970;-3.168;2023-04-26T01:09:50;100894.89;;;8.33;37.47
73566;BME280;61846;52.970;-3.168;2023-04-26T01:12:16;100889.45;;;9.01;35.87
73566;BME280;61846;52.970;-3.168;2023-04-26T01:14:41;100888.43;;;8.46;36.41
73566;BME280;61846;52.970;-3.168;2023-04-26T01:17:07;100884.25;;;8.30;36.70
73566;BME280;61846;52.970;-3.168;2023-04-26T01:19:32;100882.41;;;8.08;37.38
73566;BME280;61846;52.970;-3.168;2023-04-26T01:21:57;100879.02;;;8.45;37.19
73566;BME280;61846;52.970;-3.168;2023-04-26T01:24:23;100877.19;;;8.79;35.93
73566;BME280;61846;52.970;-3.168;2023-04-26T01:26:49;100877.10;;;8.47;36.65
73566;BME280;61846;52.970;-3.168;2023-04-26T01:29:16;100875.46;;;8.13;37.01
73566;BME280;61846;52.970;-3.168;2023-04-26T01:31:40;100873.65;;;8.86;35.93
73566;BME280;61846;52.970;-3.168;2023-04-26T01:34:05;100871.47;;;8.80;35.82
73566;BME280;61846;52.970;-3.168;2023-04-26T01:36:31;100869.00;;;8.26;37.14
73566;BME280;61846;52.970;-3.168;2023-04-26T01:38:57;100871.84;;;7.36;39.20
73566;BME280;61846;52.970;-3.168;2023-04-26T01:41:22;100869.16;;;8.05;37.87
73566;BME280;61846;52.970;-3.168;2023-04-26T01:43:48;100863.63;;;7.99;37.82
73566;BME280;61846;52.970;-3.168;2023-04-26T01:46:13;100863.54;;;9.02;35.79
73566;BME280;61846;52.970;-3.168;2023-04-26T01:48:38;100859.90;;;8.84;36.73
73566;BME280;61846;52.970;-3.168;2023-04-26T01:51:05;100855.29;;;8.35;37.20
73566;BME280;61846;52.970;-3.168;2023-04-26T01:53:29;100854.43;;;8.78;36.33
73566;BME280;61846;52.970;-3.168;2023-04-26T01:55:55;100855.60;;;8.49;37.00
73566;BME280;61846;52.970;-3.168;2023-04-26T01:58:20;100858.20;;;8.88;36.53
73566;BME280;61846;52.970;-3.168;2023-04-26T02:00:46;100863.95;;;7.84;38.04
73566;BME280;61846;52.970;-3.168;2023-04-26T02:03:11;100855.63;;;9.37;36.00
73566;BME280;61846;52.970;-3.168;2023-04-26T02:05:37;100851.73;;;9.69;35.54
73566;BME280;61846;52.970;-3.168;2023-04-26T02:08:02;100852.37;;;9.71;34.92
73566;BME280;61846;52.970;-3.168;2023-04-26T02:10:28;100856.83;;;8.14;36.84
73566;BME280;61846;52.970;-3.168;2023-04-26T02:12:53;100854.36;;;9.18;36.49
73566;BME280;61846;52.970;-3.168;2023-04-26T02:15:18;100844.19;;;9.45;36.28
73566;BME280;61846;52.970;-3.168;2023-04-26T02:17:44;100839.83;;;9.26;35.97
73566;BME280;61846;52.970;-3.168;2023-04-26T02:20:10;100837.21;;;8.58;37.48
73566;BME280;61846;52.970;-3.168;2023-04-26T02:22:35;100839.32;;;8.58;37.29
73566;BME280;61846;52.970;-3.168;2023-04-26T02:25:00;100845.06;;;7.50;39.18
73566;BME280;61846;52.970;-3.168;2023-04-26T02:27:26;100844.07;;;8.40;37.86
73566;BME280;61846;52.970;-3.168;2023-04-26T02:29:51;100839.24;;;8.94;37.39
73566;BME280;61846;52.970;-3.168;2023-04-26T02:32:16;100830.79;;;9.76;35.98
73566;BME280;61846;52.970;-3.168;2023-04-26T02:34:43;100824.89;;;8.88;36.76
73566;BME280;61846;52.970;-3.168;2023-04-26T02:37:07;100820.12;;;9.24;35.57
73566;BME280;61846;52.970;-3.168;2023-04-26T02:39:33;100815.96;;;9.34;36.34
73566;BME280;61846;52.970;-3.168;2023-04-26T02:41:58;100812.62;;;9.59;35.73
73566;BME280;61846;52.970;-3.168;2023-04-26T02:44:24;100819.07;;;8.31;36.58
73566;BME280;61846;52.970;-3.168;2023-04-26T02:46:49;100822.64;;;9.37;35.68
73566;BME280;61846;52.970;-3.168;2023-04-26T02:49:15;100825.90;;;9.76;35.40
73566;BME280;61846;52.970;-3.168;2023-04-26T02:51:40;100818.38;;;10.03;35.81
73566;BME280;61846;52.970;-3.168;2023-04-26T02:54:05;100819.75;;;8.51;37.81
73566;BME280;61846;52.970;-3.168;2023-04-26T02:56:31;100827.02;;;9.02;37.70
73566;BME280;61846;52.970;-3.168;2023-04-26T02:58:56;100825.90;;;9.25;36.76
73566;BME280;61846;52.970;-3.168;2023-04-26T03:01:21;100829.31;;;9.11;37.81
73566;BME280;61846;52.970;-3.168;2023-04-26T03:03:47;100828.19;;;9.55;37.62
73566;BME280;61846;52.970;-3.168;2023-04-26T03:06:12;100827.27;;;8.43;38.54
73566;BME280;61846;52.970;-3.168;2023-04-26T03:08:37;100830.09;;;7.98;39.84
73566;BME280;61846;52.970;-3.168;2023-04-26T03:11:03;100826.17;;;8.81;38.51
73566;BME280;61846;52.970;-3.168;2023-04-26T03:13:28;100822.46;;;8.14;39.22
73566;BME280;61846;52.970;-3.168;2023-04-26T03:15:53;100818.64;;;8.15;39.21
73566;BME280;61846;52.970;-3.168;2023-04-26T03:18:18;100817.92;;;8.48;38.72
73566;BME280;61846;52.970;-3.168;2023-04-26T03:20:44;100811.19;;;9.09;37.28
73566;BME280;61846;52.970;-3.168;2023-04-26T03:23:09;100812.26;;;8.83;37.48
73566;BME280;61846;52.970;-3.168;2023-04-26T03:25:35;100814.93;;;9.51;36.38
73566;BME280;61846;52.970;-3.168;2023-04-26T03:28:00;100814.33;;;8.51;37.97
73566;BME280;61846;52.970;-3.168;2023-04-26T03:30:25;100810.69;;;8.08;39.10
73566;BME280;61846;52.970;-3.168;2023-04-26T03:32:51;100804.42;;;8.26;38.29
73566;BME280;61846;52.970;-3.168;2023-04-26T03:35:16;100802.73;;;9.28;36.74
73566;BME280;61846;52.970;-3.168;2023-04-26T03:37:43;100798.77;;;9.25;37.07
73566;BME280;61846;52.970;-3.168;2023-04-26T03:40:08;100801.77;;;9.37;37.53
73566;BME280;61846;52.970;-3.168;2023-04-26T03:42:32;100802.58;;;9.37;37.00
73566;BME280;61846;52.970;-3.168;2023-04-26T03:44:57;100801.40;;;9.55;36.67
73566;BME280;61846;52.970;-3.168;2023-04-26T03:47:23;100800.08;;;9.62;36.90
73566;BME280;61846;52.970;-3.168;2023-04-26T03:49:49;100796.96;;;8.66;38.52
73566;BME280;61846;52.970;-3.168;2023-04-26T03:52:14;100796.21;;;9.05;38.01
73566;BME280;61846;52.970;-3.168;2023-04-26T03:54:39;100795.45;;;8.96;39.16
73566;BME280;61846;52.970;-3.168;2023-04-26T03:57:05;100795.81;;;8.15;39.63
73566;BME280;61846;52.970;-3.168;2023-04-26T03:59:30;100795.54;;;8.69;38.58
73566;BME280;61846;52.970;-3.168;2023-04-26T04:01:56;100791.56;;;9.70;37.78
73566;BME280;61846;52.970;-3.168;2023-04-26T04:04:21;100789.05;;;9.44;38.64
73566;BME280;61846;52.970;-3.168;2023-04-26T04:06:46;100789.37;;;9.41;38.06
73566;BME280;61846;52.970;-3.168;2023-04-26T04:09:12;100791.43;;;9.30;38.26
73566;BME280;61846;52.970;-3.168;2023-04-26T04:11:37;100791.28;;;9.48;38.57
73566;BME280;61846;52.970;-3.168;2023-04-26T04:14:03;100787.44;;;9.43;38.37
73566;BME280;61846;52.970;-3.168;2023-04-26T04:16:28;100782.93;;;9.16;37.89
73566;BME280;61846;52.970;-3.168;2023-04-26T04:18:53;100779.47;;;8.73;39.04
73566;BME280;61846;52.970;-3.168;2023-04-26T04:21:19;100783.11;;;9.20;38.22
73566;BME280;61846;52.970;-3.168;2023-04-26T04:23:44;100782.32;;;9.07;39.05
73566;BME280;61846;52.970;-3.168;2023-04-26T04:26:09;100784.52;;;8.60;38.74
73566;BME280;61846;52.970;-3.168;2023-04-26T04:28:34;100787.20;;;9.33;37.64
73566;BME280;61846;52.970;-3.168;2023-04-26T04:31:00;100788.52;;;8.85;38.45
73566;BME280;61846;52.970;-3.168;2023-04-26T04:33:26;100790.72;;;8.97;37.44
73566;BME280;61846;52.970;-3.168;2023-04-26T04:35:51;100794.44;;;8.64;38.68
73566;BME280;61846;52.970;-3.168;2023-04-26T04:38:17;100797.35;;;7.57;40.35
73566;BME280;61846;52.970;-3.168;2023-04-26T04:40:42;100798.01;;;8.83;38.46
73566;BME280;61846;52.970;-3.168;2023-04-26T04:43:07;100803.20;;;8.64;39.64
73566;BME280;61846;52.970;-3.168;2023-04-26T04:45:33;100804.77;;;9.13;39.09
73566;BME280;61846;52.970;-3.168;2023-04-26T04:47:58;100804.49;;;9.03;39.32
73566;BME280;61846;52.970;-3.168;2023-04-26T04:50:23;100804.22;;;9.22;38.97
73566;BME280;61846;52.970;-3.168;2023-04-26T04:52:48;100801.72;;;8.60;39.67
73566;BME280;61846;52.970;-3.168;2023-04-26T04:55:14;100801.42;;;7.95;39.26
73566;BME280;61846;52.970;-3.168;2023-04-26T04:57:39;100804.23;;;7.45;41.11
73566;BME280;61846;52.970;-3.168;2023-04-26T05:00:08;100797.15;;;8.06;39.88
73566;BME280;61846;52.970;-3.168;2023-04-26T05:02:31;100800.11;;;8.42;39.63
73566;BME280;61846;52.970;-3.168;2023-04-26T05:04:56;100800.40;;;9.21;38.72
73566;BME280;61846;52.970;-3.168;2023-04-26T05:07:21;100798.08;;;8.90;38.70
73566;BME280;61846;52.970;-3.168;2023-04-26T05:09:47;100796.10;;;9.70;37.28
73566;BME280;61846;52.970;-3.168;2023-04-26T05:12:13;100792.82;;;9.49;37.28
73566;BME280;61846;52.970;-3.168;2023-04-26T05:14:39;100793.60;;;9.65;36.97
73566;BME280;61846;52.970;-3.168;2023-04-26T05:17:05;100788.62;;;9.17;37.75
73566;BME280;61846;52.970;-3.168;2023-04-26T05:19:30;100784.47;;;9.17;38.32
73566;BME280;61846;52.970;-3.168;2023-04-26T05:21:55;100784.11;;;9.33;37.77
73566;BME280;61846;52.970;-3.168;2023-04-26T05:24:21;100787.39;;;9.32;37.48
73566;BME280;61846;52.970;-3.168;2023-04-26T05:26:46;100790.57;;;9.95;36.80
73566;BME280;61846;52.970;-3.168;2023-04-26T05:29:12;100791.37;;;9.81;36.38
73566;BME280;61846;52.970;-3.168;2023-04-26T05:31:37;100791.47;;;9.93;37.73
73566;BME280;61846;52.970;-3.168;2023-04-26T05:34:02;100796.18;;;9.84;37.89
73566;BME280;61846;52.970;-3.168;2023-04-26T05:36:28;100794.45;;;7.59;41.08
73566;BME280;61846;52.970;-3.168;2023-04-26T05:38:54;100792.90;;;8.67;39.71
73566;BME280;61846;52.970;-3.168;2023-04-26T05:41:19;100795.36;;;9.02;39.70
73566;BME280;61846;52.970;-3.168;2023-04-26T05:43:46;100795.08;;;9.08;38.72
73566;BME280;61846;52.970;-3.168;2023-04-26T05:46:10;100798.61;;;9.72;38.26
73566;BME280;61846;52.970;-3.168;2023-04-26T05:48:35;100801.66;;;9.27;39.28
73566;BME280;61846;52.970;-3.168;2023-04-26T05:51:01;100808.32;;;8.67;39.54
73566;BME280;61846;52.970;-3.168;2023-04-26T05:53:27;100808.13;;;9.15;38.87
73566;BME280;61846;52.970;-3.168;2023-04-26T05:55:52;100807.45;;;8.90;40.00
73566;BME280;61846;52.970;-3.168;2023-04-26T05:58:17;100802.40;;;8.74;39.70
73566;BME280;61846;52.970;-3.168;2023-04-26T06:00:43;100802.33;;;8.95;39.66
73566;BME280;61846;52.970;-3.168;2023-04-26T06:03:08;100806.77;;;8.97;39.35
73566;BME280;61846;52.970;-3.168;2023-04-26T06:05:34;100809.58;;;8.92;38.66
73566;BME280;61846;52.970;-3.168;2023-04-26T06:07:59;100811.42;;;9.39;37.68
73566;BME280;61846;52.970;-3.168;2023-04-26T06:10:24;100814.07;;;9.43;38.35
73566;BME280;61846;52.970;-3.168;2023-04-26T06:12:49;100811.27;;;8.56;38.85
73566;BME280;61846;52.970;-3.168;2023-04-26T06:15:14;100807.79;;;9.44;37.45
73566;BME280;61846;52.970;-3.168;2023-04-26T06:17:40;100808.51;;;9.54;36.95
73566;BME280;61846;52.970;-3.168;2023-04-26T06:20:07;100808.84;;;9.56;37.41
73566;BME280;61846;52.970;-3.168;2023-04-26T06:22:32;100803.76;;;10.04;36.57
73566;BME280;61846;52.970;-3.168;2023-04-26T06:24:57;100808.39;;;9.07;39.08
73566;BME280;61846;52.970;-3.168;2023-04-26T06:27:23;100809.27;;;8.43;39.88
73566;BME280;61846;52.970;-3.168;2023-04-26T06:29:48;100803.48;;;9.40;38.16
73566;BME280;61846;52.970;-3.168;2023-04-26T06:32:13;100805.12;;;9.15;38.38
73566;BME280;61846;52.970;-3.168;2023-04-26T06:34:38;100807.04;;;9.01;38.70
73566;BME280;61846;52.970;-3.168;2023-04-26T06:37:04;100805.83;;;8.78;38.53
73566;BME280;61846;52.970;-3.168;2023-04-26T06:39:30;100808.07;;;9.73;36.92
73566;BME280;61846;52.970;-3.168;2023-04-26T06:41:55;100810.83;;;8.99;38.12
73566;BME280;61846;52.970;-3.168;2023-04-26T06:44:20;100812.36;;;9.68;36.51
73566;BME280;61846;52.970;-3.168;2023-04-26T06:46:46;100811.63;;;9.31;37.28
73566;BME280;61846;52.970;-3.168;2023-04-26T06:49:11;100814.76;;;10.03;36.18
73566;BME280;61846;52.970;-3.168;2023-04-26T06:51:37;100812.92;;;9.95;36.12
73566;BME280;61846;52.970;-3.168;2023-04-26T06:54:02;100816.54;;;9.78;35.94
73566;BME280;61846;52.970;-3.168;2023-04-26T06:56:27;100820.16;;;10.21;35.68
73566;BME280;61846;52.970;-3.168;2023-04-26T06:58:58;100821.69;;;9.61;36.25
73566;BME280;61846;52.970;-3.168;2023-04-26T07:01:17;100819.81;;;10.27;36.41
73566;BME280;61846;52.970;-3.168;2023-04-26T07:03:42;100818.38;;;10.39;36.27
73566;BME280;61846;52.970;-3.168;2023-04-26T07:06:08;100816.71;;;10.61;35.95
73566;BME280;61846;52.970;-3.168;2023-04-26T07:08:33;100817.88;;;10.25;36.74
73566;BME280;61846;52.970;-3.168;2023-04-26T07:10:59;100816.06;;;10.10;36.93
73566;BME280;61846;52.970;-3.168;2023-04-26T07:13:25;100816.87;;;10.25;37.46
73566;BME280;61846;52.970;-3.168;2023-04-26T07:15:50;100820.80;;;9.85;38.84
73566;BME280;61846;52.970;-3.168;2023-04-26T07:18:16;100819.48;;;9.82;38.15
73566;BME280;61846;52.970;-3.168;2023-04-26T07:20:41;100816.71;;;8.45;40.93
73566;BME280;61846;52.970;-3.168;2023-04-26T07:23:07;100813.85;;;9.66;38.97
73566;BME280;61846;52.970;-3.168;2023-04-26T07:25:33;100814.25;;;9.93;38.36
73566;BME280;61846;52.970;-3.168;2023-04-26T07:27:58;100809.79;;;10.60;36.25
73566;BME280;61846;52.970;-3.168;2023-04-26T07:30:24;100804.41;;;11.10;35.58
73566;BME280;61846;52.970;-3.168;2023-04-26T07:32:48;100808.10;;;10.60;43.56
73566;BME280;61846;52.970;-3.168;2023-04-26T07:35:13;100806.27;;;10.20;35.80
73566;BME280;61846;52.970;-3.168;2023-04-26T07:37:39;100799.80;;;10.64;34.85
73566;BME280;61846;52.970;-3.168;2023-04-26T07:40:05;100799.93;;;11.35;36.03
73566;BME280;61846;52.970;-3.168;2023-04-26T07:42:29;100801.38;;;11.54;35.75
73566;BME280;61846;52.970;-3.168;2023-04-26T07:44:54;100798.57;;;11.29;34.98
73566;BME280;61846;52.970;-3.168;2023-04-26T07:47:20;100801.08;;;10.97;34.26
73566;BME280;61846;52.970;-3.168;2023-04-26T07:49:45;100803.46;;;10.77;34.64
73566;BME280;61846;52.970;-3.168;2023-04-26T07:52:11;100798.82;;;11.37;33.32
73566;BME280;61846;52.970;-3.168;2023-04-26T07:54:36;100800.77;;;11.18;34.33
73566;BME280;61846;52.970;-3.168;2023-04-26T07:57:02;100806.00;;;9.41;38.38
73566;BME280;61846;52.970;-3.168;2023-04-26T07:59:27;100801.11;;;10.63;36.81
73566;BME280;61846;52.970;-3.168;2023-04-26T08:01:52;100800.34;;;12.10;33.75
73566;BME280;61846;52.970;-3.168;2023-04-26T08:06:45;100793.38;;;12.34;31.80
73566;BME280;61846;52.970;-3.168;2023-04-26T08:09:09;100796.66;;;12.19;32.07
73566;BME280;61846;52.970;-3.168;2023-04-26T08:11:34;100797.66;;;10.89;33.87
73566;BME280;61846;52.970;-3.168;2023-04-26T08:14:00;100792.87;;;11.97;32.40
73566;BME280;61846;52.970;-3.168;2023-04-26T08:16:25;100793.23;;;12.13;32.06
73566;BME280;61846;52.970;-3.168;2023-04-26T08:18:50;100791.16;;;11.71;32.26
73566;BME280;61846;52.970;-3.168;2023-04-26T08:21:16;100786.40;;;11.62;32.33
73566;BME280;61846;52.970;-3.168;2023-04-26T08:23:42;100781.44;;;12.26;31.40
73566;BME280;61846;52.970;-3.168;2023-04-26T08:26:08;100784.47;;;12.35;30.69
73566;BME280;61846;52.970;-3.168;2023-04-26T08:28:33;100784.90;;;10.47;31.14
73566;BME280;61846;52.970;-3.168;2023-04-26T08:30:59;100788.55;;;10.40;31.87
73566;BME280;61846;52.970;-3.168;2023-04-26T08:33:25;100794.86;;;8.31;33.79
73566;BME280;61846;52.970;-3.168;2023-04-26T08:35:50;100791.93;;;10.23;30.67
73566;BME280;61846;52.970;-3.168;2023-04-26T08:38:15;100794.85;;;10.19;29.42
73566;BME280;61846;52.970;-3.168;2023-04-26T08:40:42;100789.78;;;10.72;28.68
73566;BME280;61846;52.970;-3.168;2023-04-26T08:43:08;100785.12;;;10.96;28.52
73566;BME280;61846;52.970;-3.168;2023-04-26T08:45:34;100787.28;;;10.56;28.67
73566;BME280;61846;52.970;-3.168;2023-04-26T08:48:02;100789.30;;;10.12;29.67
73566;BME280;61846;52.970;-3.168;2023-04-26T08:50:23;100787.71;;;11.06;29.01
73566;BME280;61846;52.970;-3.168;2023-04-26T08:52:49;100786.66;;;11.72;27.88
73566;BME280;61846;52.970;-3.168;2023-04-26T08:55:15;100786.32;;;10.53;28.94
73566;BME280;61846;52.970;-3.168;2023-04-26T08:57:40;100791.91;;;9.38;30.14
73566;BME280;61846;52.970;-3.168;2023-04-26T09:00:06;100799.37;;;9.77;30.30
73566;BME280;61846;52.970;-3.168;2023-04-26T09:02:31;100794.34;;;10.75;28.66
73566;BME280;61846;52.970;-3.168;2023-04-26T09:04:56;100796.31;;;11.14;27.73
73566;BME280;61846;52.970;-3.168;2023-04-26T09:07:28;100793.43;;;12.39;27.46
73566;BME280;61846;52.970;-3.168;2023-04-26T09:09:48;100801.84;;;13.24;27.47
73566;BME280;61846;52.970;-3.168;2023-04-26T09:12:14;100803.93;;;12.08;28.19
73566;BME280;61846;52.970;-3.168;2023-04-26T09:14:38;100803.07;;;13.38;27.36
73566;BME280;61846;52.970;-3.168;2023-04-26T09:17:03;100809.50;;;9.95;30.24
73566;BME280;61846;52.970;-3.168;2023-04-26T09:19:35;100803.82;;;12.52;28.36
73566;BME280;61846;52.970;-3.168;2023-04-26T09:21:55;100805.70;;;12.58;28.33
73566;BME280;61846;52.970;-3.168;2023-04-26T09:24:20;100804.22;;;13.39;27.05
73566;BME280;61846;52.970;-3.168;2023-04-26T09:26:45;100805.44;;;13.23;26.84
73566;BME280;61846;52.970;-3.168;2023-04-26T09:29:12;100797.23;;;13.73;26.03
73566;BME280;61846;52.970;-3.168;2023-04-26T09:31:38;100798.17;;;12.63;26.14
73566;BME280;61846;52.970;-3.168;2023-04-26T09:34:01;100792.62;;;12.32;27.48
73566;BME280;61846;52.970;-3.168;2023-04-26T09:36:27;100792.23;;;11.55;28.04
73566;BME280;61846;52.970;-3.168;2023-04-26T09:38:52;100794.09;;;11.35;28.97
73566;BME280;61846;52.970;-3.168;2023-04-26T09:41:18;100797.62;;;11.37;29.57
73566;BME280;61846;52.970;-3.168;2023-04-26T09:43:43;100790.67;;;11.13;30.06
73566;BME280;61846;52.970;-3.168;2023-04-26T09:46:09;100793.90;;;10.54;30.80
73566;BME280;61846;52.970;-3.168;2023-04-26T09:48:35;100791.52;;;10.57;31.20
73566;BME280;61846;52.970;-3.168;2023-04-26T09:51:08;100784.75;;;12.24;29.79
73566;BME280;61846;52.970;-3.168;2023-04-26T09:53:28;100780.84;;;12.19;29.70
73566;BME280;61846;52.970;-3.168;2023-04-26T09:55:52;100777.18;;;13.43;27.68
73566;BME280;61846;52.970;-3.168;2023-04-26T09:58:17;100775.76;;;12.98;28.39
73566;BME280;61846;52.970;-3.168;2023-04-26T10:00:43;100774.33;;;12.00;28.49
73566;BME280;61846;52.970;-3.168;2023-04-26T10:03:08;100782.88;;;11.82;29.01
73566;BME280;61846;52.970;-3.168;2023-04-26T10:05:33;100780.36;;;12.57;28.13
73566;BME280;61846;52.970;-3.168;2023-04-26T10:07:59;100777.49;;;13.42;27.16
73566;BME280;61846;52.970;-3.168;2023-04-26T10:10:25;100775.08;;;12.44;27.19
73566;BME280;61846;52.970;-3.168;2023-04-26T10:12:50;100777.82;;;11.97;28.49
73566;BME280;61846;52.970;-3.168;2023-04-26T10:15:15;100775.89;;;12.77;28.33
73566;BME280;61846;52.970;-3.168;2023-04-26T10:17:41;100771.03;;;14.49;26.68
73566;BME280;61846;52.970;-3.168;2023-04-26T10:20:11;100772.10;;;14.35;26.90
73566;BME280;61846;52.970;-3.168;2023-04-26T10:22:35;100770.32;;;14.22;26.69
73566;BME280;61846;52.970;-3.168;2023-04-26T10:24:57;100766.47;;;14.26;24.60
73566;BME280;61846;52.970;-3.168;2023-04-26T10:30:04;100759.38;;;15.36;26.11
73566;BME280;61846;52.970;-3.168;2023-04-26T10:32:13;100764.10;;;14.21;24.97
73566;BME280;61846;52.970;-3.168;2023-04-26T10:34:38;100763.53;;;12.91;26.44
73566;BME280;61846;52.970;-3.168;2023-04-26T10:37:06;100762.40;;;13.61;26.61
73566;BME280;61846;52.970;-3.168;2023-04-26T10:39:30;100760.21;;;12.51;27.24
73566;BME280;61846;52.970;-3.168;2023-04-26T10:44:37;100757.39;;;13.66;25.37
73566;BME280;61846;52.970;-3.168;2023-04-26T10:46:49;100751.26;;;14.76;25.48
73566;BME280;61846;52.970;-3.168;2023-04-26T10:49:13;100751.61;;;14.21;26.37
73566;BME280;61846;52.970;-3.168;2023-04-26T10:51:37;100753.07;;;14.06;25.27
73566;BME280;61846;52.970;-3.168;2023-04-26T10:54:02;100742.64;;;14.58;24.91
73566;BME280;61846;52.970;-3.168;2023-04-26T11:01:18;100741.78;;;14.47;25.62
73566;BME280;61846;52.970;-3.168;2023-04-26T11:06:09;100738.47;;;15.50;25.14
73566;BME280;61846;52.970;-3.168;2023-04-26T11:08:35;100735.55;;;15.40;26.89
73566;BME280;61846;52.970;-3.168;2023-04-26T11:11:06;100731.62;;;14.90;24.60
73566;BME280;61846;52.970;-3.168;2023-04-26T11:13:25;100726.18;;;14.88;24.16
73566;BME280;61846;52.970;-3.168;2023-04-26T11:15:52;100730.91;;;14.70;24.10
73566;BME280;61846;52.970;-3.168;2023-04-26T11:18:18;100731.87;;;15.71;24.83
73566;BME280;61846;52.970;-3.168;2023-04-26T11:20:43;100738.19;;;12.68;27.83
73566;BME280;61846;52.970;-3.168;2023-04-26T11:23:07;100738.94;;;13.56;26.90
73566;BME280;61846;52.970;-3.168;2023-04-26T11:25:32;100740.07;;;12.99;27.07
73566;BME280;61846;52.970;-3.168;2023-04-26T11:27:59;100739.30;;;14.14;26.06
73566;BME280;61846;52.970;-3.168;2023-04-26T11:30:23;100735.44;;;15.50;25.30
73566;BME280;61846;52.970;-3.168;2023-04-26T11:32:49;100729.04;;;15.99;25.01
73566;BME280;61846;52.970;-3.168;2023-04-26T11:35:14;100723.28;;;16.21;25.74
73566;BME280;61846;52.970;-3.168;2023-04-26T11:37:39;100724.30;;;16.19;24.68
73566;BME280;61846;52.970;-3.168;2023-04-26T11:40:09;100727.82;;;15.58;22.97
73566;BME280;61846;52.970;-3.168;2023-04-26T11:42:31;100735.06;;;13.51;26.19
73566;BME280;61846;52.970;-3.168;2023-04-26T11:44:56;100725.32;;;15.66;23.47
73566;BME280;61846;52.970;-3.168;2023-04-26T11:47:22;100722.76;;;15.54;24.21
73566;BME280;61846;52.970;-3.168;2023-04-26T11:49:47;100717.71;;;16.50;24.00
73566;BME280;61846;52.970;-3.168;2023-04-26T11:52:13;100718.51;;;16.48;23.50
73566;BME280;61846;52.970;-3.168;2023-04-26T11:54:38;100722.20;;;15.32;23.74
73566;BME280;61846;52.970;-3.168;2023-04-26T11:57:12;100720.98;;;13.74;25.47
73566;BME280;61846;52.970;-3.168;2023-04-26T11:59:29;100716.11;;;15.84;24.31
73566;BME280;61846;52.970;-3.168;2023-04-26T12:01:56;100711.37;;;15.95;23.79
73566;BME280;61846;52.970;-3.168;2023-04-26T12:04:26;100712.28;;;17.10;23.72
73566;BME280;61846;52.970;-3.168;2023-04-26T12:06:46;100712.02;;;15.33;25.16
73566;BME280;61846;52.970;-3.168;2023-04-26T12:09:12;100710.60;;;17.01;23.24
73566;BME280;61846;52.970;-3.168;2023-04-26T12:11:37;100711.09;;;16.79;22.71
73566;BME280;61846;52.970;-3.168;2023-04-26T12:14:03;100711.30;;;16.10;22.78
73566;BME280;61846;52.970;-3.168;2023-04-26T12:16:28;100726.58;;;14.03;24.65
73566;BME280;61846;52.970;-3.168;2023-04-26T12:18:55;100728.01;;;14.39;25.54
73566;BME280;61846;52.970;-3.168;2023-04-26T12:21:20;100729.97;;;13.78;26.18
73566;BME280;61846;52.970;-3.168;2023-04-26T12:23:44;100725.22;;;15.41;24.65
73566;BME280;61846;52.970;-3.168;2023-04-26T12:26:10;100719.40;;;16.17;23.39
73566;BME280;61846;52.970;-3.168;2023-04-26T12:28:36;100721.92;;;14.82;25.67
73566;BME280;61846;52.970;-3.168;2023-04-26T12:31:02;100728.01;;;15.02;24.46
73566;BME280;61846;52.970;-3.168;2023-04-26T12:33:27;100726.99;;;15.45;23.56
73566;BME280;61846;52.970;-3.168;2023-04-26T12:35:52;100722.27;;;15.64;23.89
73566;BME280;61846;52.970;-3.168;2023-04-26T12:38:18;100733.37;;;13.25;25.78
73566;BME280;61846;52.970;-3.168;2023-04-26T12:40:43;100732.25;;;13.37;26.13
73566;BME280;61846;52.970;-3.168;2023-04-26T12:43:09;100732.89;;;12.05;27.55
73566;BME280;61846;52.970;-3.168;2023-04-26T12:45:35;100728.73;;;14.59;26.08
73566;BME280;61846;52.970;-3.168;2023-04-26T12:48:00;100736.55;;;12.79;27.01
73566;BME280;61846;52.970;-3.168;2023-04-26T12:50:26;100737.57;;;13.90;25.60